Time;durP1;ratioP1;P1;durP2;ratioP2;P2;SDS_P1;SDS_P2;PMS_P1;PMS_P2;Temp;Humidity;BMP_temperature;BMP_pressure;BME280_temperature;BME280_humidity;BME280_pressure;Samples;Min_cycle;Max_cycle;Signal;HPM_P1;HPM_P2
2023/05/21 03:47:57;;;;;;;;;;;;;;;;;;;;;
2023/05/21 03:50:29;;;;;;;6.88;4.50;;;16.60;99.90;;;;;;6288279;22;20090;-91
2023/05/21 08:38:03;;;;;;;11.70;7.22;;;18.60;99.90;;;;;;6296077;22;20023;-82
2023/05/21 08:40:29;;;;;;;11.13;6.00;;;18.70;99.90;;;;;;6286824;22;20441;-82
2023/05/21 08:42:55;;;;;;;12.02;7.85;;;18.70;99.90;;;;;;6238435;22;20080;-81
2023/05/21 08:45:22;;;;;;;10.88;7.25;;;18.80;99.90;;;;;;6313888;22;20074;-82
2023/05/21 08:47:55;;;;;;;9.50;7.30;;;18.90;99.90;;;;;;6283821;22;20046;-83
2023/05/21 08:50:25;;;;;;;11.68;6.80;;;19.00;99.90;;;;;;6281667;22;20007;-83
2023/05/21 08:52:51;;;;;;;12.25;6.95;;;19.00;99.90;;;;;;6282287;22;19999;-83
2023/05/21 08:55:17;;;;;;;10.85;6.82;;;19.10;99.90;;;;;;6257119;22;20000;-83
2023/05/21 08:57:43;;;;;;;13.40;7.53;;;19.20;99.90;;;;;;6281817;22;20010;-83
2023/05/21 09:00:10;;;;;;;11.70;7.63;;;19.30;99.90;;;;;;6256219;22;20017;-83
2023/05/21 09:02:39;;;;;;;11.20;7.47;;;19.30;99.90;;;;;;6255715;22;19999;-83
2023/05/21 09:05:08;;;;;;;10.68;7.53;;;19.40;99.90;;;;;;6308971;22;20467;-83
2023/05/21 09:07:57;;;;;;;12.65;7.47;;;19.40;99.90;;;;;;6308323;22;20003;-83
2023/05/21 09:10:28;;;;;;;13.40;7.80;;;19.50;99.90;;;;;;6280004;22;20007;-83
2023/05/21 09:12:54;;;;;;;10.23;7.72;;;19.50;99.90;;;;;;6282309;22;20480;-82
2023/05/21 09:15:20;;;;;;;13.38;7.70;;;19.50;99.90;;;;;;6281491;22;20082;-84
2023/05/21 09:17:47;;;;;;;9.40;7.13;;;19.60;99.90;;;;;;6256350;22;20019;-83
2023/05/21 09:20:15;;;;;;;11.65;8.38;;;19.60;99.90;;;;;;6255925;22;20333;-84
2023/05/21 09:22:41;;;;;;;10.65;7.63;;;19.70;99.90;;;;;;6256348;22;20502;-83
2023/05/21 09:25:08;;;;;;;10.25;7.25;;;19.70;99.90;;;;;;6281340;22;20007;-83
2023/05/21 09:27:34;;;;;;;11.13;8.00;;;19.80;99.90;;;;;;6307927;22;20007;-83
2023/05/21 09:30:07;;;;;;;11.13;8.02;;;19.80;99.90;;;;;;6255226;22;20014;-82
2023/05/21 09:32:33;;;;;;;10.60;7.75;;;19.90;99.90;;;;;;6281464;22;20412;-83
2023/05/21 09:35:13;;;;;;;11.27;8.95;;;19.90;99.90;;;;;;6281434;22;20021;-82
2023/05/21 09:37:43;;;;;;;12.45;8.35;;;20.00;99.90;;;;;;6275390;22;20115;-83
2023/05/21 09:40:10;;;;;;;;;;;20.10;99.90;;;;;;6276475;22;20003;-84
2023/05/21 09:42:38;;;;;;;11.80;8.07;;;20.20;99.90;;;;;;6277729;22;19899;-82
2023/05/21 09:45:05;;;;;;;11.43;7.95;;;20.20;99.90;;;;;;6275711;22;20034;-84
2023/05/21 09:55:09;;;;;;;11.50;8.45;;;20.40;99.90;;;;;;6041721;23;20014;-95
2023/05/21 10:11:53;;;;;;;16.08;10.35;;;20.80;99.90;;;;;;6014492;23;20103;-95
2023/05/21 10:14:36;;;;;;;13.65;9.80;;;20.90;99.90;;;;;;5994774;23;20064;-96
2023/05/21 10:36:04;;;;;;;14.02;10.98;;;21.20;99.90;;;;;;6244919;22;20027;-96
2023/05/21 10:49:28;;;;;;;;;;;;;;;;;;;;;
2023/05/21 11:00:20;;;;;;;13.70;10.38;;;21.70;99.90;;;;;;6037508;23;20020;-96
2023/05/21 11:03:10;;;;;;;16.65;10.23;;;21.70;99.90;;;;;;6022598;23;20012;-96
2023/05/21 11:10:02;;;;;;;;;;;;;;;;;;;;;
2023/05/21 11:37:29;;;;;;;;;;;;;;;;;;;;;
2023/05/21 11:41:00;;;;;;;;;;;;;;;;;;;;;
2023/05/21 11:47:32;;;;;;;;;;;;;;;;;;;;;
2023/05/21 11:50:22;;;;;;;;;;;;;;;;;;;;;
2023/05/21 11:52:49;;;;;;;13.63;8.57;;;22.70;99.90;;;;;;6009668;23;20000;-95
2023/05/21 12:01:42;;;;;;;11.75;8.65;;;22.90;99.90;;;;;;6279370;22;20023;-85
2023/05/21 12:04:08;;;;;;;14.48;8.88;;;23.00;99.90;;;;;;6296881;22;19988;-83
2023/05/21 12:06:33;;;;;;;11.25;8.68;;;23.10;99.90;;;;;;6308060;22;20007;-83
2023/05/21 12:08:59;;;;;;;12.00;8.77;;;23.20;99.90;;;;;;6269408;22;20003;-85
2023/05/21 12:11:26;;;;;;;14.25;8.95;;;23.20;99.90;;;;;;6285274;22;19999;-85
2023/05/21 12:13:52;;;;;;;13.45;8.95;;;23.30;99.90;;;;;;6261329;22;20014;-85
2023/05/21 12:16:19;;;;;;;11.75;8.05;;;23.30;99.90;;;;;;6262335;22;20015;-87
2023/05/21 12:18:45;;;;;;;11.50;8.32;;;23.40;99.90;;;;;;6328509;22;20018;-82
2023/05/21 12:21:11;;;;;;;10.80;8.10;;;23.40;99.90;;;;;;6279916;22;19999;-89
2023/05/21 12:23:42;;;;;;;12.98;9.00;;;23.50;99.90;;;;;;6248993;22;20589;-94
2023/05/21 12:26:11;;;;;;;12.13;8.95;;;23.50;99.90;;;;;;6289230;22;20007;-92
2023/05/21 12:28:47;;;;;;;10.18;8.77;;;23.60;99.90;;;;;;6286309;22;20065;-94
2023/05/21 12:31:15;;;;;;;12.00;9.55;;;23.60;99.90;;;;;;6293667;22;20100;-90
2023/05/21 12:33:46;;;;;;;12.40;9.23;;;23.70;99.90;;;;;;6259480;22;20003;-86
2023/05/21 12:36:39;;;;;;;12.20;8.40;;;23.80;99.90;;;;;;6285134;22;20027;-86
2023/05/21 12:39:07;;;;;;;11.57;8.70;;;23.80;99.90;;;;;;6284435;22;20472;-86
2023/05/21 12:50:21;;;;;;;11.73;8.90;;;24.10;99.90;;;;;;6292005;22;20027;-96
2023/05/21 12:52:57;;;;;;;11.93;8.98;;;24.10;99.90;;;;;;6286382;22;20003;-95
2023/05/21 12:55:36;;;;;;;13.65;8.45;;;24.20;99.90;;;;;;6261542;22;20011;-96
2023/05/21 12:58:13;;;;;;;12.07;9.25;;;24.20;99.90;;;;;;6268403;22;20007;-96
2023/05/21 13:04:31;;;;;;;;;;;;;;;;;;;;;
2023/05/21 13:10:24;;;;;;;13.18;8.48;;;24.50;99.90;;;;;;6259158;22;20007;-96
2023/05/21 13:16:04;;;;;;;;;;;;;;;;;;;;;
2023/05/21 13:25:18;;;;;;;;;;;;;;;;;;;;;
2023/05/21 13:28:14;;;;;;;;;;;;;;;;;;;;;
2023/05/21 13:31:13;;;;;;;;;;;;;;;;;;;;;
2023/05/21 13:34:09;;;;;;;;;;;;;;;;;;;;;
2023/05/21 13:40:21;;;;;;;12.18;9.05;;;24.90;99.90;;;;;;6271190;22;20091;-96
2023/05/21 13:45:51;;;;;;;17.08;8.68;;;25.00;99.90;;;;;;6213919;22;20008;-96
2023/05/21 13:52:49;;;;;;;;;;;;;;;;;;;;;
2023/05/21 13:55:19;;;;;;;10.35;7.97;;;25.20;99.90;;;;;;6280057;22;20015;-96
2023/05/21 13:58:34;;;;;;;;;;;;;;;;;;;;;
2023/05/21 14:01:12;;;;;;;13.18;8.98;;;25.20;99.90;;;;;;6258690;22;20012;-96
2023/05/21 14:07:12;;;;;;;;;;;;;;;;;;;;;
2023/05/21 14:09:51;;;;;;;12.07;8.65;;;25.30;99.90;;;;;;6261954;22;20019;-96
2023/05/21 14:16:18;;;;;;;13.48;9.02;;;25.30;99.90;;;;;;6252477;23;20008;-96
2023/05/21 14:25:12;;;;;;;13.13;8.65;;;25.50;99.90;;;;;;6235313;22;20028;-94
2023/05/21 14:38:14;;;;;;;12.20;9.40;;;25.70;99.90;;;;;;6268362;22;20038;-96
2023/05/21 14:45:05;;;;;;;11.63;8.70;;;25.70;99.90;;;;;;6171894;23;20020;-96
2023/05/21 14:50:40;;;;;;;;;;;;;;;;;;;;;
2023/05/21 14:56:26;;;;;;;;;;;;;;;;;;;;;
2023/05/21 14:59:20;;;;;;;;;;;;;;;;;;;;;
2023/05/21 15:02:42;;;;;;;;;;;;;;;;;;;;;
2023/05/21 15:05:59;;;;;;;;;;;;;;;;;;;;;
2023/05/21 15:15:19;;;;;;;;;;;;;;;;;;;;;
2023/05/21 15:18:26;;;;;;;;;;;;;;;;;;;;;
2023/05/21 15:21:10;;;;;;;;;;;;;;;;;;;;;
2023/05/21 15:24:26;;;;;;;22.27;15.55;;;26.10;99.90;;;;;;6274960;22;20007;-96
2023/05/21 15:27:33;;;;;;;23.38;17.23;;;26.10;99.90;;;;;;6271615;22;20009;-96
2023/05/21 15:33:43;;;;;;;19.63;16.23;;;26.20;99.90;;;;;;6289406;22;20023;-96
2023/05/21 15:39:27;;;;;;;12.63;9.52;;;26.20;99.90;;;;;;6264858;22;20257;-95
2023/05/21 15:42:27;;;;;;;26.90;20.40;;;26.20;99.90;;;;;;6245605;22;20016;-94
2023/05/21 15:47:39;;;;;;;19.30;16.95;;;26.20;99.90;;;;;;6252461;22;20216;-91
2023/05/21 15:50:17;;;;;;;24.17;19.23;;;26.30;99.90;;;;;;6279636;22;20014;-91
2023/05/21 15:52:54;;;;;;;15.90;13.07;;;26.30;99.90;;;;;;6254395;22;19992;-93
2023/05/21 15:55:25;;;;;;;12.52;10.35;;;26.30;99.90;;;;;;6279333;22;20007;-93
2023/05/21 15:57:51;;;;;;;14.10;11.57;;;26.30;99.90;;;;;;6253612;22;20008;-95
2023/05/21 16:22:12;;;;;;;14.35;10.35;;;26.50;99.90;;;;;;6013134;23;20023;-95
2023/05/21 16:24:38;;;;;;;15.10;9.77;;;26.50;99.90;;;;;;6068204;23;20100;-84
2023/05/21 16:27:04;;;;;;;14.95;9.73;;;26.60;99.90;;;;;;6179599;23;20039;-86
2023/05/21 16:29:29;;;;;;;12.68;9.68;;;26.60;99.90;;;;;;6195743;23;20008;-84
2023/05/21 16:31:55;;;;;;;13.82;9.25;;;26.60;99.90;;;;;;6220828;23;20044;-84
2023/05/21 16:34:21;;;;;;;11.73;9.68;;;26.70;99.90;;;;;;6247193;23;20023;-87
2023/05/21 16:36:46;;;;;;;14.50;10.68;;;26.70;99.90;;;;;;6222051;23;20014;-88
2023/05/21 16:39:12;;;;;;;15.13;10.48;;;26.80;99.80;;;;;;6196583;23;20030;-86
2023/05/21 16:41:37;;;;;;;13.65;9.73;;;26.80;99.30;;;;;;6196727;23;20494;-87
2023/05/21 16:44:03;;;;;;;11.95;8.93;;;26.80;98.80;;;;;;6197119;23;20000;-86
2023/05/21 16:46:29;;;;;;;18.77;9.55;;;26.90;98.50;;;;;;6220672;23;20099;-87
2023/05/21 16:48:54;;;;;;;13.15;9.75;;;26.90;98.30;;;;;;6247963;23;20000;-89
2023/05/21 16:51:20;;;;;;;14.43;10.02;;;26.90;98.10;;;;;;6171545;23;20407;-87
2023/05/21 16:53:46;;;;;;;11.10;9.90;;;26.90;97.70;;;;;;6196952;23;20031;-86
2023/05/21 16:56:12;;;;;;;12.68;9.38;;;26.90;97.10;;;;;;6220304;23;20004;-85
2023/05/21 16:58:38;;;;;;;12.75;9.60;;;26.90;96.70;;;;;;6195637;23;20439;-85
2023/05/21 17:01:03;;;;;;;14.50;9.98;;;26.80;96.60;;;;;;6247844;23;20028;-87
2023/05/21 17:03:31;;;;;;;15.68;9.55;;;26.80;96.50;;;;;;6247325;23;20054;-86
2023/05/21 17:05:56;;;;;;;19.10;14.85;;;26.80;96.40;;;;;;6220964;23;20014;-85
2023/05/21 17:08:22;;;;;;;14.25;10.68;;;26.70;96.40;;;;;;6220305;23;20383;-84
2023/05/21 17:10:47;;;;;;;12.02;9.68;;;26.60;96.20;;;;;;6195250;23;20008;-86
2023/05/21 17:13:13;;;;;;;12.20;9.93;;;26.60;96.50;;;;;;6219759;23;20047;-85
2023/05/21 17:15:39;;;;;;;12.80;9.90;;;26.60;96.40;;;;;;6194205;23;20444;-86
2023/05/21 17:21:47;;;;;;;17.98;16.17;;;26.70;96.20;;;;;;6156642;23;20013;-82
2023/05/21 17:24:13;;;;;;;15.63;13.70;;;26.60;96.20;;;;;;6174897;23;20062;-82
2023/05/21 17:26:38;;;;;;;19.95;16.75;;;26.60;96.00;;;;;;6219917;23;20012;-81
2023/05/21 17:29:04;;;;;;;26.73;19.92;;;26.60;96.30;;;;;;6246723;23;20059;-81
2023/05/21 17:31:31;;;;;;;19.75;15.93;;;26.50;96.80;;;;;;6219495;23;20322;-82
2023/05/21 17:33:57;;;;;;;16.27;11.60;;;26.50;97.20;;;;;;6194961;23;20011;-81
2023/05/21 17:36:23;;;;;;;15.30;12.38;;;26.40;97.10;;;;;;6219142;23;20430;-80
2023/05/21 17:38:49;;;;;;;18.42;14.55;;;26.40;97.20;;;;;;6194584;23;20307;-81
2023/05/21 17:41:17;;;;;;;15.35;12.18;;;26.40;97.60;;;;;;6219374;23;20326;-81
2023/05/21 17:43:44;;;;;;;16.25;12.70;;;26.30;97.60;;;;;;6219619;23;20004;-81
2023/05/21 17:46:10;;;;;;;17.27;12.85;;;26.20;97.60;;;;;;6219386;23;19996;-81
2023/05/21 17:48:36;;;;;;;19.25;12.50;;;26.20;97.70;;;;;;6194406;23;20008;-82
2023/05/21 17:51:01;;;;;;;17.65;11.55;;;26.10;97.80;;;;;;6219594;23;20434;-83
2023/05/21 17:53:27;;;;;;;15.63;11.73;;;26.10;98.00;;;;;;6194290;23;20000;-80
2023/05/21 17:55:53;;;;;;;16.85;10.88;;;26.00;98.10;;;;;;6194242;23;20104;-83
2023/05/21 17:58:18;;;;;;;12.90;11.15;;;26.00;98.20;;;;;;6246157;23;20011;-82
2023/05/21 18:00:44;;;;;;;13.30;11.35;;;25.90;98.00;;;;;;6194194;23;20004;-82
2023/05/21 18:03:10;;;;;;;13.07;10.32;;;25.90;98.20;;;;;;6219443;23;20000;-83
2023/05/21 18:05:35;;;;;;;12.20;9.57;;;25.90;97.90;;;;;;6194047;23;20011;-83
2023/05/21 18:08:01;;;;;;;15.50;11.15;;;25.80;98.00;;;;;;6194524;23;20061;-82
2023/05/21 18:10:27;;;;;;;14.60;11.18;;;25.70;98.20;;;;;;6219246;23;20011;-82
2023/05/21 18:12:53;;;;;;;16.13;11.35;;;25.70;98.40;;;;;;6219280;23;20008;-83
2023/05/21 18:15:19;;;;;;;12.10;10.75;;;25.70;98.60;;;;;;6218984;23;20004;-82
2023/05/21 18:17:46;;;;;;;16.15;11.13;;;25.70;98.70;;;;;;6219226;23;20151;-81
2023/05/21 18:20:12;;;;;;;15.75;10.93;;;25.60;98.90;;;;;;6219295;23;20092;-83
2023/05/21 18:22:38;;;;;;;12.25;10.27;;;25.50;98.90;;;;;;6223102;22;20077;-82
2023/05/21 18:25:04;;;;;;;12.32;9.77;;;25.50;98.90;;;;;;6224309;22;20079;-82
2023/05/21 18:27:30;;;;;;;14.70;11.50;;;25.50;99.00;;;;;;6276954;22;20003;-82
2023/05/21 18:29:56;;;;;;;15.18;11.38;;;25.50;99.10;;;;;;6249672;22;20521;-82
2023/05/21 18:32:22;;;;;;;12.38;10.68;;;25.40;99.10;;;;;;6249172;22;20011;-82
2023/05/21 18:34:48;;;;;;;12.07;10.45;;;25.40;99.10;;;;;;6249794;22;20035;-83
2023/05/21 18:37:15;;;;;;;12.00;10.18;;;25.40;99.10;;;;;;6249160;22;20012;-82
2023/05/21 18:39:41;;;;;;;13.68;10.27;;;25.30;99.20;;;;;;6249512;22;20422;-82
2023/05/21 18:42:07;;;;;;;13.60;10.20;;;25.30;99.30;;;;;;6249398;22;20087;-84
2023/05/21 18:44:33;;;;;;;16.65;11.75;;;25.30;99.40;;;;;;6249881;22;20004;-83
2023/05/21 18:46:58;;;;;;;16.00;11.70;;;25.20;99.30;;;;;;6249487;22;20086;-82
2023/05/21 18:49:25;;;;;;;14.27;11.30;;;25.20;99.40;;;;;;6224162;22;20391;-81
2023/05/21 18:51:50;;;;;;;15.48;10.75;;;25.20;99.60;;;;;;6249534;22;20010;-83
2023/05/21 18:54:16;;;;;;;14.82;11.13;;;25.10;99.60;;;;;;6249495;22;20082;-83
2023/05/21 18:56:42;;;;;;;14.02;12.00;;;25.10;99.60;;;;;;6250266;22;20095;-83
2023/05/21 18:59:07;;;;;;;19.75;16.27;;;25.10;99.40;;;;;;6251748;22;20004;-84
2023/05/21 19:01:33;;;;;;;19.45;16.55;;;25.00;99.50;;;;;;6246567;22;20034;-82
2023/05/21 19:03:59;;;;;;;20.58;14.38;;;25.00;99.50;;;;;;6247884;22;20007;-83
2023/05/21 19:06:26;;;;;;;17.23;12.68;;;24.90;99.40;;;;;;6223911;22;20100;-83
2023/05/21 19:08:52;;;;;;;15.50;12.73;;;24.90;99.40;;;;;;6250880;22;20095;-84
2023/05/21 19:11:18;;;;;;;13.95;11.77;;;24.80;99.40;;;;;;6250006;22;20359;-84
2023/05/21 19:13:45;;;;;;;14.75;11.88;;;24.80;99.50;;;;;;6224755;22;20027;-83
2023/05/21 19:16:11;;;;;;;13.60;11.80;;;24.80;99.60;;;;;;6250753;22;20004;-82
2023/05/21 19:18:39;;;;;;;14.20;12.70;;;24.70;99.80;;;;;;6249655;22;20003;-83
2023/05/21 19:21:05;;;;;;;16.67;12.10;;;24.70;99.80;;;;;;6249591;22;20003;-84
2023/05/21 19:23:31;;;;;;;13.85;11.60;;;24.70;99.90;;;;;;6276421;22;20039;-84
2023/05/21 19:25:56;;;;;;;12.55;11.02;;;24.60;99.80;;;;;;6249155;22;20426;-83
2023/05/21 19:28:22;;;;;;;12.15;10.75;;;24.50;99.80;;;;;;6250606;22;20438;-84
2023/05/21 19:30:48;;;;;;;14.00;11.38;;;24.50;99.60;;;;;;6277635;22;20004;-84
2023/05/21 19:33:13;;;;;;;15.98;11.23;;;24.50;99.70;;;;;;6224789;22;19999;-82
2023/05/21 19:35:40;;;;;;;13.55;10.55;;;24.50;99.70;;;;;;6261975;22;20020;-82
2023/05/21 19:38:08;;;;;;;15.23;11.38;;;24.40;99.90;;;;;;6248084;22;20003;-83
2023/05/21 19:40:34;;;;;;;13.07;10.55;;;24.30;99.90;;;;;;6261050;22;20000;-84
2023/05/21 19:43:00;;;;;;;13.73;11.15;;;24.30;99.90;;;;;;6228112;22;20004;-82
2023/05/21 19:45:25;;;;;;;14.35;11.00;;;24.30;99.90;;;;;;6293731;22;20302;-83
2023/05/21 19:47:51;;;;;;;16.27;10.88;;;24.30;99.90;;;;;;6296988;22;20004;-83
2023/05/21 19:50:17;;;;;;;15.57;11.88;;;24.20;99.90;;;;;;6256511;22;20008;-83
2023/05/21 19:52:42;;;;;;;15.05;11.77;;;24.20;99.90;;;;;;6226249;22;20007;-84
2023/05/21 19:55:09;;;;;;;13.63;11.65;;;24.10;99.90;;;;;;6249889;22;20003;-83
2023/05/21 19:57:34;;;;;;;15.98;11.70;;;24.10;99.90;;;;;;6276709;22;20000;-84
2023/05/21 20:00:00;;;;;;;14.70;11.77;;;24.10;99.90;;;;;;6249770;22;20011;-83
2023/05/21 20:02:27;;;;;;;14.10;10.80;;;24.00;99.90;;;;;;6223965;22;20003;-83
2023/05/21 20:04:56;;;;;;;19.73;15.60;;;23.90;99.90;;;;;;6276418;22;20000;-83
2023/05/21 20:07:22;;;;;;;18.27;16.33;;;23.90;99.90;;;;;;6199800;22;20019;-83
2023/05/21 20:09:49;;;;;;;17.15;14.27;;;23.80;99.90;;;;;;6249564;22;20011;-84
2023/05/21 20:12:15;;;;;;;15.30;12.90;;;23.80;99.90;;;;;;6224584;22;20004;-83
2023/05/21 20:14:41;;;;;;;16.05;11.95;;;23.80;99.90;;;;;;6276412;22;20108;-82
2023/05/21 20:17:07;;;;;;;16.52;11.55;;;23.70;99.90;;;;;;6248694;22;20421;-83
2023/05/21 20:19:33;;;;;;;15.30;12.18;;;23.70;99.90;;;;;;6248935;22;19999;-83
2023/05/21 20:21:59;;;;;;;15.35;12.48;;;23.60;99.90;;;;;;6276331;22;20049;-83
2023/05/21 20:24:25;;;;;;;14.80;11.85;;;23.60;99.90;;;;;;6249467;22;20015;-84
2023/05/21 20:26:51;;;;;;;14.05;11.85;;;23.50;99.90;;;;;;6248882;22;20314;-83
2023/05/21 20:29:16;;;;;;;16.08;12.20;;;23.50;99.90;;;;;;6224811;22;20003;-86
2023/05/21 20:31:42;;;;;;;15.00;11.85;;;23.50;99.90;;;;;;6249189;22;20166;-83
2023/05/21 20:34:11;;;;;;;16.20;12.52;;;23.40;99.90;;;;;;6224633;22;20099;-83
2023/05/21 20:46:51;;;;;;;;;;;;;;;;;;;;;
2023/05/21 20:49:45;;;;;;;;;;;;;;;;;;;;;
2023/05/21 20:52:22;;;;;;;17.02;12.15;;;23.20;99.90;;;;;;6280148;22;20074;-90
2023/05/21 22:12:06;;;;;;;;;;;;;;;;;;;;;
